Actavis, Inc. (NASDAQ:ACT)

CAPS Rating: 3 out of 5

The Company is engaged in the development, manufacture, marketing, sale and distribution of brand and off-patent pharmaceutical products.

Results 1 - 99 of 294 : 1 2 3 Next »
Top
Pick
Member Name Member
Rating
Start
Date
Call Time
Frame
Start
Price
Stock
Gain
Index
Gain
Score Commentary
Bobo3000 84.56 4/1/2014 Underperform 5Y $213.47 -2.20% -1.94% +0.27 0 Comment
Classical < 20 3/31/2014 Outperform 5Y $204.27 +2.20% -1.31% +3.52 1 Comment
Brandonrules 43.67 3/28/2014 Underperform 5Y $203.54 +2.57% -0.64% -3.21 0 Comment
HEEpikur 77.24 3/28/2014 Outperform 5Y $206.49 +1.10% -0.90% +2.00 0 Comment
stemcells2011 65.01 3/26/2014 Underperform 5Y $207.16 +0.78% -1.51% -2.29 0 Comment
mrtmg61 < 20 3/24/2014 Outperform NS $209.80 -0.49% -1.31% +0.82 0 Comment
naughtyguy 30.92 3/13/2014 Underperform 5Y $215.20 -2.99% -1.50% +1.49 1 Comment
wil2excell2002 57.43 3/10/2014 Outperform 5Y $209.56 -0.38% -1.99% +1.61 0 Comment
ZACH08 70.01 12/4/2012 3/9/2014 Outperform 3Y $87.92 +137.45% +30.50% +106.96 0 Comment
alley136 33.71 3/4/2014 Outperform 5Y $222.52 -6.18% -1.37% -4.81 0 Comment
DugdaleTiki 38.00 3/3/2014 Outperform 1Y $213.00 -1.99% -0.27% -1.72 1 Comment
Raphael1990 96.53 3/3/2014 Outperform 5Y $213.00 -1.99% -0.27% -1.72 0 Comment
spankolney93 39.07 3/3/2014 Outperform 1Y $214.74 -2.78% -0.29% -2.49 0 Comment
jrswaisgood < 20 2/27/2014 Outperform 3M $227.17 -8.10% -0.71% -7.39 0 Comment
PestAssassin0065 43.91 2/26/2014 Outperform 1Y $229.16 -8.90% -0.65% -8.25 0 Comment
ParkerMajik 70.13 2/24/2014 Outperform 1Y $217.75 -4.12% -0.04% -4.08 0 Comment
bolshan1 64.18 2/12/2014 Outperform 5Y $189.63 +10.09% +1.21% +8.88 0 Comment
BachHandel 79.37 2/3/2014 Outperform 5Y $183.24 +13.93% +5.19% +8.74 0 Comment
chlear27 95.46 2/3/2014 Outperform 5Y $187.62 +11.27% +4.27% +7.00 0 Comment
wlp3rd 21.81 2/3/2014 Outperform 5Y $188.50 +10.75% +3.54% +7.22 0 Comment
ferregu12 33.44 2/3/2014 Outperform 5Y $190.00 +9.88% +3.51% +6.37 0 Comment
StewpotDrew 31.45 2/3/2014 Outperform 5Y $190.00 +9.88% +3.51% +6.37 1 Comment
dcauble 52.52 1/29/2014 Outperform 3Y $182.20 +14.58% +3.34% +11.24 0 Comment
farhangp < 20 1/27/2014 Outperform 5Y $177.22 +17.80% +3.11% +14.69 0 Comment
cuffllinks 76.26 1/24/2014 Outperform 1Y $181.34 +15.13% +1.43% +13.69 0 Comment
subsurfacemapper 65.48 1/23/2014 Outperform 5Y $186.18 +12.13% +0.46% +11.68 1 Comment
flypower 98.10 1/22/2014 Outperform 5Y $186.00 +12.24% -0.16% +12.40 0 Comment
gio815 23.92 1/22/2014 Outperform 5Y $186.00 +12.24% -0.16% +12.40 0 Comment
schuled1 45.75 1/21/2014 Outperform 5Y $184.35 +13.25% -0.27% +13.52 0 Comment
MiQuerencia 41.02 1/21/2014 Outperform 5Y $184.35 +13.25% -0.27% +13.52 0 Comment
otherAquanaut 99.79 1/25/2013 1/20/2014 Outperform 3M $83.94 +148.71% +22.81% +125.91 0 Comment
mrudolph72 63.21 1/17/2014 Outperform 1Y $183.18 +13.97% +0.17% +13.80 0 Comment
IRA2014 55.32 1/17/2014 Outperform 5Y $181.23 +15.20% +0.05% +15.14 2 Comments
STEVESTEEZE 78.97 1/16/2014 Outperform 1Y $180.35 +15.76% -0.10% +15.86 0 Comment
douglasscott2005 45.65 1/14/2014 Outperform 5Y $182.50 +14.39% +1.05% +13.34 0 Comment
This player feels very strongly about this pick and has marked it a Top Pick. Top Picks do not affect a player’s score. reddingrunner 97.46 1/13/2014 Outperform 1Y $181.25 +15.18% +1.38% +13.80 1 Comment
1russianguy 54.17 1/13/2014 Outperform 1Y $182.54 +14.37% +1.05% +13.32 1 Comment
1picks 85.36 1/13/2014 Outperform 1Y $182.72 +14.26% +0.98% +13.28 1 Comment
manirg 40.53 12/24/2013 Outperform 5Y $164.50 +26.91% +0.69% +26.22 1 Comment
j80863 71.55 12/16/2013 Outperform 5Y $161.47 +29.29% +2.93% +26.36 0 Comment
akita1000 < 20 12/10/2013 Outperform 1Y $163.78 +27.47% +1.77% +25.70 0 Comment
VELOCE100 38.21 12/6/2013 Outperform 5Y $167.13 +24.91% +1.79% +23.12 0 Comment
PAGEBOY54 22.46 12/6/2013 Outperform 3M $167.42 +24.70% +1.74% +22.96 0 Comment
Jeeel 60.37 12/6/2013 Outperform 3M $164.30 +27.07% +1.95% +25.11 0 Comment
sjduffee 67.92 11/12/2013 Underperform 3Y $160.18 +30.33% +4.10% -26.23 0 Comment
jacobc4 65.03 11/7/2013 Outperform 5Y $156.09 +33.75% +3.77% +29.98 0 Comment
lovepeace 29.03 11/4/2013 Outperform 5Y $158.06 +32.08% +4.25% +27.83 0 Comment
madstockpicker 64.87 10/30/2013 Outperform 1Y $156.28 +33.59% +4.00% +29.58 0 Comment
willbuffett2012 97.44 10/30/2013 Outperform 1Y $156.37 +33.51% +3.94% +29.57 0 Comment
chris293 86.11 10/25/2013 Underperform 5Y $146.30 +42.70% +4.95% -37.75 1 Comment
Raetsel < 20 10/21/2013 Outperform 5Y $147.15 +41.88% +5.59% +36.29 0 Comment
hoosiereagle 63.54 10/9/2013 Outperform 3Y $137.78 +51.52% +11.51% +40.01 0 Comment
SideShowShrey 72.82 10/8/2013 Outperform 5Y $139.96 +49.16% +11.02% +38.14 0 Comment
This player feels very strongly about this pick and has marked it a Top Pick. Top Picks do not affect a player’s score. 1LoneWolf 64.31 10/2/2013 Outperform 5Y $145.29 +43.69% +9.08% +34.61 0 Comment
TimSauer 85.55 9/12/2013 Outperform 1Y $136.09 +53.41% +8.94% +44.48 0 Comment
jyothishnair 86.71 9/11/2013 Outperform 1Y $135.01 +54.63% +8.97% +45.66 0 Comment
MaryStern 47.11 9/9/2013 Outperform 5Y $136.19 +53.29% +9.94% +43.36 0 Comment
djtp54 < 20 9/9/2013 Outperform 3Y $137.40 +51.94% +10.66% +41.28 1 Comment
onecandream 84.99 9/3/2013 Outperform 3M $136.68 +52.74% +11.48% +41.26 0 Comment
jagad5 < 20 8/14/2013 Outperform 3Y $138.04 +51.24% +9.01% +42.23 1 Comment
gorilla93 59.89 7/30/2013 Outperform NS $134.76 +54.92% +8.93% +45.99 0 Comment
stockshakers 44.71 7/29/2013 Outperform NS $133.99 +55.81% +9.20% +46.61 0 Comment
Biotechbillions 77.34 7/16/2013 Outperform 5Y $125.65 +66.15% +9.47% +56.68 0 Comment
kirkminer 71.88 7/15/2013 Outperform 5Y $125.90 +65.82% +9.81% +56.01 0 Comment
Pfff10 63.03 7/15/2013 Outperform 5Y $126.76 +64.70% +9.66% +55.03 0 Comment
semajruss1 44.84 7/11/2013 Outperform 5Y $125.42 +66.46% +10.23% +56.23 0 Comment
Emperador78 89.75 7/8/2013 Outperform 5Y $126.23 +65.39% +12.37% +53.02 0 Comment
RutgersCrow74 61.58 7/3/2013 Outperform 5Y $123.51 +69.03% +14.03% +55.00 0 Comment
dewilson357 < 20 6/6/2013 Outperform 3W $119.98 +74.00% +14.27% +59.74 0 Comment
DavidSobel < 20 6/5/2013 Outperform 5Y $119.39 +74.86% +12.94% +61.92 0 Comment
knightrail09 < 20 5/29/2013 Underperform 5Y $123.92 +68.47% +11.35% -57.12 0 Comment
jnysea 32.84 5/28/2013 Outperform 5Y $127.44 +63.82% +10.27% +53.55 0 Comment
kenhannan 65.83 5/20/2013 Outperform 1Y $127.80 +63.36% +10.44% +52.91 0 Comment
n22w3 52.00 5/20/2013 Outperform 5Y $127.80 +63.36% +10.44% +52.91 0 Comment
dtempusb 85.98 5/17/2013 Outperform 5Y $124.66 +67.47% +11.00% +56.47 0 Comment
bearonwallstreet 82.21 5/16/2013 Outperform 5Y $124.25 +68.02% +11.11% +56.91 0 Comment
roberttsf 97.96 5/14/2013 Outperform 5Y $120.31 +73.53% +12.54% +60.98 0 Comment
This player feels very strongly about this pick and has marked it a Top Pick. Top Picks do not affect a player’s score. Ukulele2011 52.50 5/13/2013 Outperform 5Y $119.00 +75.44% +12.87% +62.57 0 Comment
RafaelCanadaRed 21.92 5/7/2013 Underperform 5Y $107.66 +93.92% +13.61% -80.30 0 Comment
lmkwin1 65.21 4/30/2013 Outperform 5Y $105.52 +97.85% +15.65% +82.20 0 Comment
Look4Bottom 25.27 4/23/2013 Outperform 5Y $98.48 +111.99% +17.36% +94.63 0 Comment
damrentj < 20 4/22/2013 Outperform 5Y $98.40 +112.16% +18.24% +93.92 0 Comment
This player feels very strongly about this pick and has marked it a Top Pick. Top Picks do not affect a player’s score. jeepdrew2 49.29 4/15/2013 Outperform 5Y $97.31 +114.54% +16.58% +97.96 0 Comment
wolfhounds 28.77 3/22/2013 Outperform 5Y $90.31 +131.17% +18.95% +112.22 0 Comment
BrianNichols 94.02 3/18/2013 Outperform 5Y $90.16 +131.56% +19.39% +112.16 0 Comment
TMFSunshine 83.95 3/15/2013 Outperform 5Y $91.71 +127.64% +18.29% +109.35 0 Comment
hawk109 63.35 2/20/2013 Outperform 1Y $83.42 +150.26% +20.60% +129.66 0 Comment
ChapelRBound 59.21 2/19/2013 Outperform 5Y $87.40 +138.87% +20.89% +117.98 0 Comment
richardrogers4 68.57 2/19/2013 Outperform 5Y $87.40 +138.87% +20.89% +117.98 0 Comment
jorgealba < 20 2/11/2013 Outperform 5Y $87.13 +139.61% +21.39% +118.22 0 Comment
mateuszcz 94.07 9/25/2009 1/31/2013 Outperform 3Y $36.23 +476.24% +75.80% +400.44 0 Comment
AndyAA22 59.05 1/28/2013 Outperform 5Y $84.22 +147.89% +22.56% +125.32 0 Comment
TheCaulfieldMan 92.68 1/17/2013 Outperform 5Y $84.87 +145.99% +24.71% +121.28 0 Comment
soulsharon 68.18 1/9/2013 Outperform 5Y $86.85 +140.38% +26.28% +114.10 0 Comment
TerryHoodSr 46.39 1/7/2013 Outperform 5Y $85.01 +145.58% +26.29% +119.29 1 Comment
TMFAleph1 96.00 1/2/2013 Underperform 1Y $86.58 +141.13% +26.94% -114.19 0 Comment
jay1937 76.89 5/9/2011 1/1/2013 Outperform 1Y $62.74 +232.75% +37.27% +195.49 0 Comment
Skippynicki 75.87 12/31/2012 Outperform 5Y $87.82 +137.72% +31.89% +105.83 0 Comment
JestYourFool < 20 12/3/2012 Outperform 5Y $88.47 +135.98% +28.99% +106.99 0 Comment
Results 1 - 99 of 294 : 1 2 3 Next »

Featured Broker Partners


Advertisement